Time;durP1;ratioP1;P1;durP2;ratioP2;P2;SDS_P1;SDS_P2;PMS_P1;PMS_P2;Temp;Humidity;BMP_temperature;BMP_pressure;BME280_temperature;BME280_humidity;BME280_pressure;Samples;Min_cycle;Max_cycle;Signal;HPM_P1;HPM_P2
2022/03/30 00:00:23;;;;;;;380.40;77.78;;;;;;;;;;5101895;28;20199;-91
2022/03/30 00:02:49;;;;;;;374.80;77.55;;;;;;;;;;5102410;28;20214;-91
2022/03/30 00:05:16;;;;;;;379.80;78.32;;;;;;;;;;5105321;28;20222;-91
2022/03/30 00:07:42;;;;;;;391.08;75.82;;;;;;;;;;5106305;28;20229;-90
2022/03/30 00:10:09;;;;;;;383.30;77.32;;;;;;;;;;5114491;28;20194;-91
2022/03/30 00:12:35;;;;;;;383.80;78.55;;;;;;;;;;5109580;28;20213;-91
2022/03/30 00:15:02;;;;;;;371.30;74.40;;;;;;;;;;5106252;28;20659;-90
2022/03/30 00:17:31;;;;;;;373.52;74.85;;;;;;;;;;5106120;28;20210;-92
2022/03/30 00:19:59;;;;;;;378.80;77.82;;;;;;;;;;5105310;28;20202;-92
2022/03/30 00:22:26;;;;;;;384.77;76.38;;;;;;;;;;5105921;28;20234;-91
2022/03/30 00:24:52;;;;;;;382.83;76.07;;;;;;;;;;5106594;28;20604;-90
2022/03/30 00:27:19;;;;;;;391.23;77.50;;;;;;;;;;5108266;28;20562;-90
2022/03/30 00:29:45;;;;;;;398.08;78.88;;;;;;;;;;5103839;28;20195;-91
2022/03/30 00:32:12;;;;;;;397.95;81.72;;;;;;;;;;5104154;28;20266;-91
2022/03/30 00:34:40;;;;;;;384.15;77.13;;;;;;;;;;5104209;28;20539;-90
2022/03/30 00:37:06;;;;;;;392.48;80.68;;;;;;;;;;5104113;28;20219;-90
2022/03/30 00:39:33;;;;;;;396.13;78.28;;;;;;;;;;5104815;28;20223;-91
2022/03/30 00:41:59;;;;;;;412.40;79.13;;;;;;;;;;5103685;28;20226;-90
2022/03/30 00:44:26;;;;;;;388.58;76.55;;;;;;;;;;5105222;28;20198;-91
2022/03/30 00:46:52;;;;;;;406.48;80.00;;;;;;;;;;5104881;28;20222;-91
2022/03/30 00:49:19;;;;;;;401.02;79.57;;;;;;;;;;5104943;28;20195;-91
2022/03/30 00:51:47;;;;;;;397.85;78.80;;;;;;;;;;5104899;28;20206;-90
2022/03/30 00:54:13;;;;;;;404.00;78.82;;;;;;;;;;5103614;28;20198;-91
2022/03/30 00:56:41;;;;;;;392.77;77.38;;;;;;;;;;5103378;28;20253;-91
2022/03/30 00:59:07;;;;;;;395.20;79.75;;;;;;;;;;5102605;28;20194;-92
2022/03/30 01:01:34;;;;;;;396.63;79.45;;;;;;;;;;5103219;28;20256;-91
2022/03/30 01:04:02;;;;;;;397.67;73.95;;;;;;;;;;5104662;28;20260;-91
2022/03/30 01:06:29;;;;;;;396.25;76.60;;;;;;;;;;5105049;28;20279;-91
2022/03/30 01:08:57;;;;;;;390.25;76.53;;;;;;;;;;5105710;28;20201;-91
2022/03/30 01:11:23;;;;;;;397.95;76.20;;;;;;;;;;5105215;28;20210;-91
2022/03/30 01:13:50;;;;;;;396.58;74.68;;;;;;;;;;5105582;28;20561;-92
2022/03/30 01:16:16;;;;;;;403.73;76.28;;;;;;;;;;5120409;28;20199;-92
2022/03/30 01:18:43;;;;;;;401.35;78.85;;;;;;;;;;5118576;28;20754;-91
2022/03/30 01:21:11;;;;;;;397.98;78.28;;;;;;;;;;5104644;28;20202;-92
2022/03/30 01:23:37;;;;;;;408.38;78.40;;;;;;;;;;5105211;28;20222;-91
2022/03/30 01:26:05;;;;;;;407.10;77.97;;;;;;;;;;5105117;28;20247;-91
2022/03/30 01:28:33;;;;;;;402.40;77.30;;;;;;;;;;5104635;28;20191;-91
2022/03/30 01:33:44;;;;;;;350.70;73.07;;;;;;;;;;5119925;28;20220;-91
2022/03/30 01:36:12;;;;;;;364.80;74.28;;;;;;;;;;5105527;28;20203;-91
2022/03/30 01:38:38;;;;;;;335.13;72.03;;;;;;;;;;5104633;28;20252;-91
2022/03/30 01:41:06;;;;;;;331.13;73.50;;;;;;;;;;5104426;28;20195;-91
2022/03/30 01:43:33;;;;;;;340.40;74.28;;;;;;;;;;5103629;28;20246;-91
2022/03/30 01:45:59;;;;;;;337.17;73.63;;;;;;;;;;5102947;28;20207;-91
2022/03/30 01:48:26;;;;;;;338.17;73.38;;;;;;;;;;5107696;28;20198;-91
2022/03/30 01:50:52;;;;;;;335.00;73.10;;;;;;;;;;5104679;28;20255;-91
2022/03/30 01:53:20;;;;;;;336.50;72.45;;;;;;;;;;5103170;28;20202;-91
2022/03/30 01:55:46;;;;;;;336.90;73.03;;;;;;;;;;5102583;28;20252;-91
2022/03/30 01:58:13;;;;;;;337.63;72.80;;;;;;;;;;5103382;28;20283;-92
2022/03/30 02:00:40;;;;;;;342.30;78.40;;;;;;;;;;5104383;28;20195;-92
2022/03/30 02:03:08;;;;;;;341.38;72.80;;;;;;;;;;5104707;28;20222;-92
2022/03/30 02:05:34;;;;;;;351.13;76.47;;;;;;;;;;5103730;28;20218;-91
2022/03/30 02:08:01;;;;;;;341.90;74.00;;;;;;;;;;5125042;28;20194;-92
2022/03/30 02:10:29;;;;;;;356.30;75.88;;;;;;;;;;5106262;28;20210;-92
2022/03/30 02:12:56;;;;;;;344.73;77.43;;;;;;;;;;5090582;28;20223;-91
2022/03/30 02:15:22;;;;;;;347.42;75.78;;;;;;;;;;5099897;28;20204;-91
2022/03/30 02:17:49;;;;;;;344.80;77.65;;;;;;;;;;5102652;28;20206;-91
2022/03/30 02:20:15;;;;;;;353.50;77.47;;;;;;;;;;5102060;28;20199;-91
2022/03/30 02:22:42;;;;;;;342.85;73.05;;;;;;;;;;5118101;28;20261;-91
2022/03/30 02:25:09;;;;;;;342.23;76.10;;;;;;;;;;5108679;28;20199;-91
2022/03/30 02:27:37;;;;;;;340.67;72.22;;;;;;;;;;5103297;28;20206;-90
2022/03/30 02:30:05;;;;;;;339.00;75.15;;;;;;;;;;5103600;28;20604;-91
2022/03/30 02:32:31;;;;;;;341.35;73.25;;;;;;;;;;5104002;28;20203;-91
2022/03/30 02:34:58;;;;;;;339.60;74.45;;;;;;;;;;5094440;28;20195;-91
2022/03/30 02:37:24;;;;;;;338.35;74.75;;;;;;;;;;5108159;28;20850;-91
2022/03/30 02:39:50;;;;;;;335.10;73.13;;;;;;;;;;5112272;28;20244;-91
2022/03/30 02:42:17;;;;;;;348.00;73.18;;;;;;;;;;5102739;28;20226;-91
2022/03/30 02:44:45;;;;;;;361.02;77.45;;;;;;;;;;5102269;28;20225;-91
2022/03/30 02:47:11;;;;;;;348.25;72.15;;;;;;;;;;5102325;28;20218;-92
2022/03/30 02:49:38;;;;;;;339.00;70.90;;;;;;;;;;5103552;28;20199;-91
2022/03/30 02:52:05;;;;;;;341.75;75.50;;;;;;;;;;5103854;28;20206;-91
2022/03/30 02:54:31;;;;;;;335.10;73.00;;;;;;;;;;5107497;28;20243;-91
2022/03/30 02:56:58;;;;;;;341.77;71.07;;;;;;;;;;5112191;28;20248;-91
2022/03/30 02:59:25;;;;;;;344.05;70.78;;;;;;;;;;5103212;28;20221;-91
2022/03/30 03:01:54;;;;;;;340.77;73.10;;;;;;;;;;5103003;28;20228;-91
2022/03/30 03:04:21;;;;;;;335.20;71.32;;;;;;;;;;5101168;28;20222;-91
2022/03/30 03:06:47;;;;;;;345.88;72.53;;;;;;;;;;5101578;28;20228;-91
2022/03/30 03:09:14;;;;;;;354.00;73.55;;;;;;;;;;5102893;28;20222;-91
2022/03/30 03:11:40;;;;;;;349.63;75.65;;;;;;;;;;5108298;28;20198;-91
2022/03/30 03:14:09;;;;;;;348.35;73.72;;;;;;;;;;5118926;28;20190;-91
2022/03/30 03:16:35;;;;;;;345.13;75.80;;;;;;;;;;5101304;28;20228;-90
2022/03/30 03:19:03;;;;;;;347.50;74.90;;;;;;;;;;5102613;28;20266;-91
2022/03/30 03:21:30;;;;;;;337.15;70.03;;;;;;;;;;5103357;28;20198;-90
2022/03/30 03:23:56;;;;;;;339.45;75.50;;;;;;;;;;5101589;28;20759;-91
2022/03/30 03:26:23;;;;;;;352.13;77.47;;;;;;;;;;5100485;28;20194;-91
2022/03/30 03:28:50;;;;;;;347.20;75.20;;;;;;;;;;5106104;28;20258;-91
2022/03/30 03:31:16;;;;;;;350.20;73.68;;;;;;;;;;5102649;28;20195;-90
2022/03/30 03:33:43;;;;;;;345.00;73.82;;;;;;;;;;5102965;28;20221;-91
2022/03/30 03:36:11;;;;;;;347.48;71.60;;;;;;;;;;5103256;28;20220;-91
2022/03/30 03:38:37;;;;;;;349.25;73.25;;;;;;;;;;5103169;28;20698;-91
2022/03/30 03:41:04;;;;;;;349.55;74.80;;;;;;;;;;5106628;28;20804;-91
2022/03/30 03:43:30;;;;;;;343.00;73.70;;;;;;;;;;5107392;28;20230;-91
2022/03/30 03:45:57;;;;;;;339.50;71.90;;;;;;;;;;5112149;28;20194;-91
2022/03/30 03:48:23;;;;;;;335.52;71.82;;;;;;;;;;5127579;28;20205;-91
2022/03/30 03:50:50;;;;;;;335.85;72.38;;;;;;;;;;5111875;28;20228;-91
2022/03/30 03:53:17;;;;;;;341.00;73.10;;;;;;;;;;5107092;28;20199;-91
2022/03/30 03:55:44;;;;;;;341.75;74.43;;;;;;;;;;5107072;28;20256;-91
2022/03/30 03:58:12;;;;;;;329.77;69.80;;;;;;;;;;5107088;28;20234;-90
2022/03/30 04:00:38;;;;;;;349.65;73.43;;;;;;;;;;5106980;28;20221;-89
2022/03/30 04:03:05;;;;;;;341.35;74.68;;;;;;;;;;5106065;28;20284;-90
2022/03/30 04:05:32;;;;;;;332.05;72.88;;;;;;;;;;5113906;28;20221;-91
2022/03/30 04:07:59;;;;;;;332.13;70.70;;;;;;;;;;5106444;28;20203;-90
2022/03/30 04:10:27;;;;;;;335.48;74.93;;;;;;;;;;5106343;28;20195;-90
2022/03/30 04:12:53;;;;;;;333.27;72.32;;;;;;;;;;5106005;28;20203;-91
2022/03/30 04:15:19;;;;;;;335.98;71.18;;;;;;;;;;5105477;28;20271;-90
2022/03/30 04:17:47;;;;;;;343.30;72.45;;;;;;;;;;5105873;28;20198;-90
2022/03/30 04:20:14;;;;;;;339.02;72.35;;;;;;;;;;5107560;28;20281;-90
2022/03/30 04:22:40;;;;;;;338.20;72.68;;;;;;;;;;5125441;28;20202;-90
2022/03/30 04:25:07;;;;;;;337.35;73.25;;;;;;;;;;5119471;28;20190;-90
2022/03/30 04:27:35;;;;;;;344.45;75.15;;;;;;;;;;5104852;28;20206;-90
2022/03/30 04:30:02;;;;;;;346.33;74.75;;;;;;;;;;5102923;28;20240;-90
2022/03/30 04:32:28;;;;;;;338.05;71.93;;;;;;;;;;5105364;28;20224;-91
2022/03/30 04:34:55;;;;;;;331.33;72.93;;;;;;;;;;5105101;28;20198;-91
2022/03/30 04:37:21;;;;;;;334.00;71.30;;;;;;;;;;5105611;28;20690;-90
2022/03/30 04:39:47;;;;;;;342.40;76.45;;;;;;;;;;5118694;28;20356;-91
2022/03/30 04:42:14;;;;;;;350.10;77.38;;;;;;;;;;5104925;28;20199;-91
2022/03/30 04:44:42;;;;;;;349.02;74.38;;;;;;;;;;5105545;28;20230;-91
2022/03/30 04:47:09;;;;;;;356.00;76.97;;;;;;;;;;5105414;28;20289;-91
2022/03/30 04:49:35;;;;;;;352.65;75.22;;;;;;;;;;5104878;28;20345;-91
2022/03/30 04:52:02;;;;;;;355.05;76.72;;;;;;;;;;5104980;28;20252;-91
2022/03/30 04:54:29;;;;;;;342.15;75.35;;;;;;;;;;5103735;28;20228;-90
2022/03/30 04:56:55;;;;;;;352.98;75.18;;;;;;;;;;5104725;28;20842;-90
2022/03/30 04:59:22;;;;;;;362.35;78.20;;;;;;;;;;5105507;28;20271;-90
2022/03/30 05:01:49;;;;;;;349.05;75.03;;;;;;;;;;5105251;28;20199;-91
2022/03/30 05:04:16;;;;;;;347.52;76.78;;;;;;;;;;5105640;28;20231;-92
2022/03/30 05:06:42;;;;;;;364.80;79.30;;;;;;;;;;5105775;28;20195;-90
2022/03/30 05:09:09;;;;;;;358.48;76.43;;;;;;;;;;5104771;28;20209;-90
2022/03/30 05:11:35;;;;;;;356.50;79.22;;;;;;;;;;5103896;28;20198;-91
2022/03/30 05:14:02;;;;;;;424.45;85.53;;;;;;;;;;5116474;28;20275;-91
2022/03/30 05:16:28;;;;;;;420.42;86.25;;;;;;;;;;5091937;28;20256;-91
2022/03/30 05:18:56;;;;;;;346.05;73.22;;;;;;;;;;5084466;28;20230;-93
2022/03/30 05:21:23;;;;;;;367.10;78.82;;;;;;;;;;5098749;28;20228;-93
2022/03/30 05:23:49;;;;;;;419.50;84.82;;;;;;;;;;5095574;28;20238;-93
2022/03/30 05:26:16;;;;;;;368.42;80.25;;;;;;;;;;5103183;28;20232;-92
2022/03/30 05:28:42;;;;;;;422.30;85.00;;;;;;;;;;5103170;28;20199;-93
2022/03/30 05:31:09;;;;;;;373.15;83.95;;;;;;;;;;5101888;28;20223;-94
2022/03/30 05:33:35;;;;;;;388.17;84.40;;;;;;;;;;5103147;28;20194;-94
2022/03/30 05:36:03;;;;;;;381.30;78.95;;;;;;;;;;5103796;28;20203;-93
2022/03/30 05:38:30;;;;;;;395.48;83.38;;;;;;;;;;5102154;28;20230;-94
2022/03/30 05:40:57;;;;;;;400.65;85.30;;;;;;;;;;5091665;28;20203;-94
2022/03/30 05:43:25;;;;;;;385.38;86.32;;;;;;;;;;5102287;28;20252;-93
2022/03/30 05:45:51;;;;;;;380.70;83.90;;;;;;;;;;5102789;28;20686;-94
2022/03/30 05:48:18;;;;;;;425.10;89.55;;;;;;;;;;5103299;28;20199;-93
2022/03/30 05:50:45;;;;;;;419.85;84.13;;;;;;;;;;5103292;28;20198;-94
2022/03/30 05:53:13;;;;;;;430.80;91.88;;;;;;;;;;5102269;28;20986;-94
2022/03/30 05:55:39;;;;;;;410.70;89.35;;;;;;;;;;5100341;28;20194;-93
2022/03/30 05:58:06;;;;;;;425.00;90.32;;;;;;;;;;5101434;28;20222;-93
2022/03/30 06:00:33;;;;;;;431.55;88.57;;;;;;;;;;5104353;28;20190;-92
2022/03/30 06:03:00;;;;;;;427.13;89.82;;;;;;;;;;5102935;28;20231;-92
2022/03/30 06:05:26;;;;;;;427.27;92.20;;;;;;;;;;5102786;28;20199;-92
2022/03/30 06:07:57;;;;;;;433.23;95.38;;;;;;;;;;5102172;28;20224;-92
2022/03/30 06:10:25;;;;;;;398.00;89.00;;;;;;;;;;5098780;28;20214;-91
2022/03/30 06:12:52;;;;;;;417.60;96.80;;;;;;;;;;5087412;28;20200;-92
2022/03/30 06:15:19;;;;;;;436.70;94.82;;;;;;;;;;5084481;28;20203;-92
2022/03/30 06:17:46;;;;;;;441.95;99.63;;;;;;;;;;5083029;28;20221;-92
2022/03/30 06:20:13;;;;;;;424.33;94.45;;;;;;;;;;5083923;28;20226;-92
2022/03/30 06:22:41;;;;;;;375.50;92.88;;;;;;;;;;5102408;28;20199;-92
2022/03/30 06:25:09;;;;;;;445.25;97.07;;;;;;;;;;5102861;28;20222;-92
2022/03/30 06:27:37;;;;;;;408.83;92.13;;;;;;;;;;5097817;28;20195;-91
2022/03/30 06:30:04;;;;;;;442.90;98.28;;;;;;;;;;5092968;28;20195;-91
2022/03/30 06:32:30;;;;;;;427.67;92.65;;;;;;;;;;5100849;28;20220;-91
2022/03/30 06:34:57;;;;;;;445.40;101.78;;;;;;;;;;5101371;28;20217;-91
2022/03/30 06:37:24;;;;;;;422.83;95.50;;;;;;;;;;5102180;28;20224;-92
2022/03/30 06:39:51;;;;;;;452.98;109.30;;;;;;;;;;5101825;28;20190;-92
2022/03/30 06:42:17;;;;;;;432.88;101.78;;;;;;;;;;5102124;28;20207;-91
2022/03/30 06:44:45;;;;;;;435.90;101.43;;;;;;;;;;5102069;28;20317;-92
2022/03/30 06:47:12;;;;;;;447.13;103.72;;;;;;;;;;5101729;28;20256;-91
2022/03/30 06:49:39;;;;;;;444.23;103.25;;;;;;;;;;5100657;28;20228;-91
2022/03/30 06:52:06;;;;;;;447.13;99.60;;;;;;;;;;5095206;28;20304;-90
2022/03/30 06:54:34;;;;;;;418.90;98.85;;;;;;;;;;5082501;28;20294;-91
2022/03/30 06:57:01;;;;;;;431.50;101.65;;;;;;;;;;5094790;28;20222;-90
2022/03/30 06:59:27;;;;;;;442.58;104.90;;;;;;;;;;5103418;28;20262;-90
2022/03/30 07:01:56;;;;;;;411.55;102.80;;;;;;;;;;5103257;28;20203;-90
2022/03/30 07:04:22;;;;;;;449.58;108.07;;;;;;;;;;5096247;28;20234;-90
2022/03/30 07:12:22;;;;;;;439.42;110.53;;;;;;;;;;5077776;28;20275;-90
2022/03/30 07:14:49;;;;;;;447.25;112.57;;;;;;;;;;5094043;28;20207;-91
2022/03/30 07:17:16;;;;;;;449.27;111.65;;;;;;;;;;5094626;28;20194;-91
2022/03/30 07:19:44;;;;;;;456.00;114.05;;;;;;;;;;5094943;28;20203;-91
2022/03/30 07:22:11;;;;;;;440.52;108.53;;;;;;;;;;5100636;28;20558;-91
2022/03/30 07:24:38;;;;;;;425.58;107.78;;;;;;;;;;5100500;28;20227;-90
2022/03/30 07:27:04;;;;;;;436.88;112.20;;;;;;;;;;5099105;28;20631;-90
2022/03/30 07:29:31;;;;;;;436.20;108.95;;;;;;;;;;5101087;28;20218;-90
2022/03/30 07:31:57;;;;;;;447.77;113.75;;;;;;;;;;5100186;28;20195;-91
2022/03/30 07:34:25;;;;;;;469.98;124.30;;;;;;;;;;5101355;28;20269;-91
2022/03/30 07:36:52;;;;;;;452.85;117.95;;;;;;;;;;5101061;28;20195;-90
2022/03/30 07:39:18;;;;;;;463.67;121.13;;;;;;;;;;5102505;28;20228;-91
2022/03/30 07:41:45;;;;;;;357.97;101.90;;;;;;;;;;5102032;28;20199;-91
2022/03/30 07:44:12;;;;;;;371.50;103.67;;;;;;;;;;5102770;28;20564;-90
2022/03/30 07:46:38;;;;;;;401.93;107.97;;;;;;;;;;5102482;28;20441;-90
2022/03/30 07:49:05;;;;;;;385.47;107.20;;;;;;;;;;5102389;28;20475;-91
2022/03/30 07:51:32;;;;;;;420.67;114.83;;;;;;;;;;5101127;28;20441;-90
2022/03/30 07:53:59;;;;;;;469.00;127.28;;;;;;;;;;5102293;28;20449;-93
2022/03/30 07:56:26;;;;;;;452.52;122.35;;;;;;;;;;5102163;28;20248;-90
2022/03/30 07:58:53;;;;;;;468.05;127.97;;;;;;;;;;5102164;28;20222;-91
2022/03/30 08:01:20;;;;;;;462.85;123.10;;;;;;;;;;5102240;28;20217;-90
2022/03/30 08:03:46;;;;;;;460.00;123.65;;;;;;;;;;5102118;28;20203;-91
2022/03/30 08:06:13;;;;;;;461.70;129.73;;;;;;;;;;5086177;28;20203;-90
2022/03/30 08:08:40;;;;;;;447.80;123.97;;;;;;;;;;5102227;28;20451;-90
2022/03/30 08:11:07;;;;;;;436.17;120.73;;;;;;;;;;5100944;28;20461;-91
2022/03/30 08:13:33;;;;;;;442.23;128.47;;;;;;;;;;5101749;28;20482;-91
2022/03/30 08:16:00;;;;;;;446.20;132.27;;;;;;;;;;5101713;28;20452;-91
2022/03/30 08:18:26;;;;;;;446.67;133.47;;;;;;;;;;5086091;28;20468;-92
2022/03/30 08:23:37;;;;;;;452.87;131.47;;;;;;;;;;5102469;28;20464;-91
2022/03/30 08:26:05;;;;;;;473.93;149.00;;;;;;;;;;5104440;28;20492;-91
2022/03/30 08:28:31;;;;;;;476.47;151.20;;;;;;;;;;5106269;28;20449;-91
2022/03/30 08:30:58;;;;;;;470.27;142.37;;;;;;;;;;5087771;28;20467;-91
2022/03/30 08:33:26;;;;;;;466.47;146.87;;;;;;;;;;5106352;28;20441;-91
2022/03/30 08:35:53;;;;;;;463.27;135.93;;;;;;;;;;5106624;28;20476;-90
2022/03/30 08:38:19;;;;;;;457.47;136.57;;;;;;;;;;5106168;28;20452;-90
2022/03/30 08:40:46;;;;;;;457.47;137.93;;;;;;;;;;5105727;28;20441;-92
2022/03/30 08:43:14;;;;;;;459.57;136.67;;;;;;;;;;5105244;28;20508;-91
2022/03/30 08:45:41;;;;;;;458.40;142.63;;;;;;;;;;5104114;28;20488;-90
2022/03/30 08:48:08;;;;;;;433.63;129.27;;;;;;;;;;5104088;28;20440;-90
2022/03/30 08:50:35;;;;;;;398.50;124.20;;;;;;;;;;5105473;28;21006;-91
2022/03/30 08:53:03;;;;;;;393.90;122.67;;;;;;;;;;5105787;28;20449;-91
2022/03/30 08:55:31;;;;;;;311.13;103.27;;;;;;;;;;5105745;28;20453;-91
2022/03/30 08:57:57;;;;;;;315.83;102.57;;;;;;;;;;5102203;28;21156;-91
2022/03/30 09:00:25;;;;;;;325.27;104.50;;;;;;;;;;5109683;28;20459;-89
2022/03/30 09:02:55;;;;;;;341.63;111.47;;;;;;;;;;5106580;28;20457;-91
2022/03/30 09:05:23;;;;;;;352.63;115.07;;;;;;;;;;5099384;28;20499;-90
2022/03/30 09:07:51;;;;;;;347.90;109.00;;;;;;;;;;5097917;28;20503;-91
2022/03/30 09:10:19;;;;;;;359.40;114.83;;;;;;;;;;5083403;28;20495;-88
2022/03/30 09:12:46;;;;;;;355.87;112.80;;;;;;;;;;5102477;28;20484;-90
2022/03/30 09:15:13;;;;;;;364.13;115.57;;;;;;;;;;5095338;28;20453;-88
2022/03/30 09:17:42;;;;;;;384.00;121.47;;;;;;;;;;5103009;28;20478;-91
2022/03/30 09:20:13;;;;;;;347.47;106.83;;;;;;;;;;5104874;28;20487;-92
2022/03/30 09:22:42;;;;;;;362.67;115.97;;;;;;;;;;5104851;28;20441;-89
2022/03/30 09:25:09;;;;;;;374.70;115.10;;;;;;;;;;5104934;28;20489;-89
2022/03/30 09:27:39;;;;;;;377.50;113.77;;;;;;;;;;5104377;28;20475;-90
2022/03/30 09:30:06;;;;;;;376.90;113.83;;;;;;;;;;5103769;28;20453;-90
2022/03/30 09:32:33;;;;;;;375.13;114.43;;;;;;;;;;5103606;28;20506;-90
2022/03/30 09:35:01;;;;;;;414.03;126.97;;;;;;;;;;5105250;28;20456;-89
2022/03/30 09:37:27;;;;;;;410.67;123.83;;;;;;;;;;5104424;28;20436;-90
2022/03/30 09:39:54;;;;;;;421.63;133.17;;;;;;;;;;5105021;28;20502;-87
2022/03/30 09:42:22;;;;;;;394.10;118.27;;;;;;;;;;5103752;28;20445;-90
2022/03/30 09:44:50;;;;;;;410.23;130.47;;;;;;;;;;5101137;28;21014;-90
2022/03/30 09:47:17;;;;;;;408.13;128.40;;;;;;;;;;5101605;28;20451;-92
2022/03/30 09:49:44;;;;;;;402.00;125.53;;;;;;;;;;5104574;28;20482;-91
2022/03/30 09:52:13;;;;;;;424.80;125.33;;;;;;;;;;5104118;28;20448;-89
2022/03/30 09:54:41;;;;;;;410.87;121.17;;;;;;;;;;5105697;28;20453;-91
2022/03/30 09:57:11;;;;;;;404.13;125.70;;;;;;;;;;5103260;28;20472;-92
2022/03/30 09:59:56;;;;;;;405.93;124.17;;;;;;;;;;5102264;28;20448;-91
2022/03/30 10:02:23;;;;;;;402.77;125.37;;;;;;;;;;5101578;28;20475;-90
2022/03/30 10:04:50;;;;;;;394.07;121.23;;;;;;;;;;5104111;28;20481;-91
2022/03/30 10:07:20;;;;;;;387.27;124.47;;;;;;;;;;5103638;28;20437;-89
2022/03/30 10:09:47;;;;;;;386.93;120.67;;;;;;;;;;5101757;28;20445;-90
2022/03/30 10:12:16;;;;;;;389.97;123.27;;;;;;;;;;5098022;28;20510;-90
2022/03/30 10:14:43;;;;;;;396.03;127.77;;;;;;;;;;5101809;28;20849;-90
2022/03/30 10:17:09;;;;;;;390.27;127.10;;;;;;;;;;5100751;28;20440;-91
2022/03/30 10:19:38;;;;;;;404.40;132.10;;;;;;;;;;5097250;28;20441;-91
2022/03/30 10:22:10;;;;;;;388.80;119.23;;;;;;;;;;5099315;28;20502;-91
2022/03/30 10:24:49;;;;;;;395.13;131.10;;;;;;;;;;5101031;28;20466;-90
2022/03/30 10:27:23;;;;;;;393.60;135.17;;;;;;;;;;5101304;28;20453;-93
2022/03/30 10:29:50;;;;;;;393.63;128.90;;;;;;;;;;5098095;28;20465;-93
2022/03/30 10:32:18;;;;;;;408.30;139.47;;;;;;;;;;5101459;28;20479;-93
2022/03/30 10:35:01;;;;;;;392.93;130.57;;;;;;;;;;5101039;28;20499;-91
2022/03/30 10:37:28;;;;;;;402.77;134.27;;;;;;;;;;5098778;28;20442;-93
2022/03/30 10:39:57;;;;;;;394.83;139.20;;;;;;;;;;5102539;28;20442;-93
2022/03/30 10:42:24;;;;;;;422.23;136.20;;;;;;;;;;5100790;28;20442;-93
2022/03/30 10:44:51;;;;;;;396.20;128.33;;;;;;;;;;5102467;28;20476;-92
2022/03/30 10:47:18;;;;;;;391.70;132.27;;;;;;;;;;5101972;28;20460;-93
2022/03/30 10:49:46;;;;;;;395.73;131.93;;;;;;;;;;5101467;28;21169;-94
2022/03/30 10:52:26;;;;;;;415.43;138.23;;;;;;;;;;5101847;28;20449;-92
2022/03/30 10:55:13;;;;;;;402.63;135.87;;;;;;;;;;5103203;28;20442;-93
2022/03/30 10:57:49;;;;;;;405.10;138.10;;;;;;;;;;5102174;28;20476;-91
2022/03/30 11:00:19;;;;;;;397.20;134.37;;;;;;;;;;5102985;28;20476;-92
2022/03/30 11:02:46;;;;;;;395.77;130.50;;;;;;;;;;5102131;28;20453;-96
2022/03/30 11:05:13;;;;;;;392.47;133.07;;;;;;;;;;5103243;28;20515;-95
2022/03/30 11:07:43;;;;;;;405.63;138.33;;;;;;;;;;5103035;28;20438;-95
2022/03/30 11:10:31;;;;;;;400.17;131.50;;;;;;;;;;5104978;28;20445;-95
2022/03/30 11:13:01;;;;;;;400.90;132.87;;;;;;;;;;5102188;28;20456;-96
2022/03/30 11:15:29;;;;;;;400.83;131.27;;;;;;;;;;5104390;28;20453;-95
2022/03/30 11:18:00;;;;;;;409.07;135.40;;;;;;;;;;5103768;28;20444;-95
2022/03/30 11:20:26;;;;;;;402.57;135.87;;;;;;;;;;5104760;28;20504;-95
2022/03/30 11:22:53;;;;;;;397.10;130.77;;;;;;;;;;5103503;28;20436;-95
2022/03/30 11:25:20;;;;;;;392.60;127.60;;;;;;;;;;5102378;28;20526;-94
2022/03/30 11:28:08;;;;;;;406.97;131.33;;;;;;;;;;5102958;28;20508;-95
2022/03/30 11:30:39;;;;;;;395.47;124.67;;;;;;;;;;5101690;28;20479;-95
2022/03/30 11:33:19;;;;;;;402.27;128.57;;;;;;;;;;5103088;28;21094;-95
2022/03/30 11:35:48;;;;;;;398.53;129.10;;;;;;;;;;5100796;28;20437;-95
2022/03/30 11:38:25;;;;;;;391.60;125.97;;;;;;;;;;5100925;28;20452;-95
2022/03/30 11:40:53;;;;;;;393.10;121.90;;;;;;;;;;5101887;28;20509;-95
2022/03/30 11:43:23;;;;;;;394.57;128.47;;;;;;;;;;5092238;28;20476;-92
2022/03/30 11:45:51;;;;;;;397.97;124.20;;;;;;;;;;5101609;28;20484;-94
2022/03/30 11:48:18;;;;;;;407.87;130.40;;;;;;;;;;5101906;28;20472;-95
2022/03/30 11:50:46;;;;;;;399.43;125.47;;;;;;;;;;5102654;28;20449;-93
2022/03/30 11:53:13;;;;;;;409.63;132.47;;;;;;;;;;5102515;28;21003;-94
2022/03/30 11:55:49;;;;;;;411.67;130.27;;;;;;;;;;5101479;28;20475;-94
2022/03/30 11:58:23;;;;;;;415.30;134.30;;;;;;;;;;5101325;28;20465;-94
2022/03/30 12:00:52;;;;;;;405.43;122.73;;;;;;;;;;5103633;28;20437;-93
2022/03/30 12:03:19;;;;;;;403.10;129.73;;;;;;;;;;5106215;28;20455;-94
2022/03/30 12:05:46;;;;;;;412.30;135.90;;;;;;;;;;5094759;28;20481;-92
2022/03/30 12:08:13;;;;;;;406.13;129.77;;;;;;;;;;5092113;28;20527;-93
2022/03/30 12:10:39;;;;;;;393.20;122.13;;;;;;;;;;5105436;28;20444;-93
2022/03/30 12:13:06;;;;;;;421.00;140.93;;;;;;;;;;5104990;28;20497;-93
2022/03/30 12:15:35;;;;;;;416.43;141.67;;;;;;;;;;5105140;28;20448;-93
2022/03/30 12:18:03;;;;;;;407.87;134.97;;;;;;;;;;5104751;28;20457;-94
2022/03/30 12:20:30;;;;;;;416.40;135.57;;;;;;;;;;5105904;28;20470;-94
2022/03/30 12:23:00;;;;;;;407.13;127.57;;;;;;;;;;5105786;28;20445;-92
2022/03/30 12:25:28;;;;;;;414.93;130.47;;;;;;;;;;5105497;28;20488;-94
2022/03/30 12:27:54;;;;;;;407.47;131.27;;;;;;;;;;5106255;28;20471;-95
2022/03/30 12:30:21;;;;;;;417.40;133.57;;;;;;;;;;5104989;28;20463;-92
2022/03/30 12:32:48;;;;;;;416.13;134.17;;;;;;;;;;5104448;28;20445;-93
2022/03/30 12:35:17;;;;;;;412.57;135.00;;;;;;;;;;5103764;28;20428;-91
2022/03/30 12:37:45;;;;;;;421.27;139.30;;;;;;;;;;5101444;28;20444;-93
2022/03/30 12:40:13;;;;;;;426.97;140.77;;;;;;;;;;5104616;28;20479;-92
2022/03/30 12:42:40;;;;;;;420.10;141.97;;;;;;;;;;5105611;28;20508;-93
2022/03/30 12:45:10;;;;;;;416.17;137.27;;;;;;;;;;5105424;28;20444;-95
2022/03/30 12:47:38;;;;;;;421.23;139.17;;;;;;;;;;5105913;28;20444;-92
2022/03/30 12:50:06;;;;;;;421.17;136.87;;;;;;;;;;5106092;28;20436;-94
2022/03/30 12:52:37;;;;;;;411.47;131.20;;;;;;;;;;5106095;28;20478;-93
2022/03/30 12:55:14;;;;;;;414.27;133.47;;;;;;;;;;5085447;28;20489;-94
2022/03/30 12:57:50;;;;;;;422.07;137.17;;;;;;;;;;5098077;28;20469;-91
2022/03/30 13:00:18;;;;;;;407.17;133.37;;;;;;;;;;5101441;28;21038;-92
2022/03/30 13:02:44;;;;;;;421.97;140.77;;;;;;;;;;5101188;28;20531;-92
2022/03/30 13:05:23;;;;;;;413.80;137.00;;;;;;;;;;5094423;28;20446;-88
2022/03/30 13:07:51;;;;;;;414.90;136.80;;;;;;;;;;5082895;28;20479;-88
2022/03/30 13:10:19;;;;;;;405.60;133.60;;;;;;;;;;5097990;28;20448;-90
2022/03/30 13:12:49;;;;;;;402.23;132.47;;;;;;;;;;5100456;28;20516;-89
2022/03/30 13:15:17;;;;;;;418.23;138.57;;;;;;;;;;5105321;28;20437;-88
2022/03/30 13:17:57;;;;;;;402.97;131.07;;;;;;;;;;5104510;28;20453;-89
2022/03/30 13:20:24;;;;;;;404.67;132.90;;;;;;;;;;5096905;28;20448;-87
2022/03/30 13:22:53;;;;;;;412.60;136.70;;;;;;;;;;5098367;28;20480;-94
2022/03/30 13:25:27;;;;;;;409.40;136.20;;;;;;;;;;5101658;28;20475;-92
2022/03/30 13:27:54;;;;;;;414.70;140.17;;;;;;;;;;5101876;28;20449;-92
2022/03/30 13:30:21;;;;;;;412.33;136.27;;;;;;;;;;5101546;28;20437;-88
2022/03/30 13:32:48;;;;;;;406.80;132.97;;;;;;;;;;5101408;28;20491;-92
2022/03/30 13:35:14;;;;;;;410.33;132.47;;;;;;;;;;5102023;28;20449;-90
2022/03/30 13:37:40;;;;;;;397.30;125.03;;;;;;;;;;5102777;28;20506;-90
2022/03/30 13:40:09;;;;;;;400.07;128.23;;;;;;;;;;5102402;28;20491;-92
2022/03/30 13:42:36;;;;;;;389.73;124.27;;;;;;;;;;5101265;28;20471;-91
2022/03/30 13:45:02;;;;;;;401.07;129.87;;;;;;;;;;5098778;28;20479;-91
2022/03/30 13:47:29;;;;;;;402.60;129.27;;;;;;;;;;5085594;28;20497;-91
2022/03/30 13:49:56;;;;;;;409.97;131.90;;;;;;;;;;5085833;28;20513;-91
2022/03/30 13:52:24;;;;;;;398.27;124.10;;;;;;;;;;5100139;28;20464;-92
2022/03/30 13:54:50;;;;;;;399.90;124.90;;;;;;;;;;5096917;28;20471;-92
2022/03/30 13:57:18;;;;;;;389.77;121.47;;;;;;;;;;5096808;28;20484;-92
2022/03/30 13:59:45;;;;;;;398.00;122.93;;;;;;;;;;5097786;28;20471;-90
2022/03/30 14:02:12;;;;;;;402.80;127.30;;;;;;;;;;5095272;28;20440;-92
2022/03/30 14:04:39;;;;;;;401.37;123.97;;;;;;;;;;5091745;28;20445;-91
2022/03/30 14:07:07;;;;;;;412.93;126.87;;;;;;;;;;5091215;28;20616;-93
2022/03/30 14:09:34;;;;;;;408.13;127.67;;;;;;;;;;5092383;28;20483;-91
2022/03/30 14:12:01;;;;;;;418.87;133.30;;;;;;;;;;5094362;28;20428;-90